createdAt,value
2022-09-27T15:25:04.128Z,0.57
2022-09-27T17:41:04.372Z,1.07
2022-09-27T17:41:43.974Z,1.10
2022-09-27T17:42:35.335Z,1.40
2022-09-27T17:43:15.730Z,1.23
2022-09-27T17:44:26.870Z,1.23
2022-09-27T17:44:43.771Z,1.30
2022-09-27T17:45:19.288Z,1.33
2022-09-27T17:46:04.743Z,1.20
2022-09-27T17:48:29.725Z,1.23
2022-09-27T17:49:21.535Z,1.33
2022-09-27T17:50:27.890Z,1.58
2022-09-27T18:30:38.955Z,2.45
2022-09-27T18:31:49.699Z,2.30
2022-09-27T18:32:21.376Z,2.35
2022-09-27T18:32:41.834Z,2.12
2022-09-27T18:33:11.084Z,2.30
2022-09-27T18:33:29.355Z,2.50
2022-09-27T18:34:44.624Z,2.33
2022-09-27T18:35:16.274Z,2.30
2022-09-27T19:09:16.990Z,2.03
2022-09-27T19:10:10.464Z,1.90
2022-09-27T19:25:27.354Z,2.97
2022-09-27T19:26:24.719Z,3.10
2022-09-27T19:26:54.157Z,2.87
2022-09-27T19:27:47.254Z,2.50
2022-09-27T19:28:12.732Z,2.83
2022-09-27T19:28:40.114Z,3.00
2022-09-27T19:29:30.000Z,3.15
2022-09-27T19:30:07.161Z,3.00
2022-09-27T19:30:31.850Z,3.30
2022-09-27T19:30:59.056Z,2.75
2022-09-27T19:31:29.835Z,3.30
2022-09-27T19:31:48.632Z,3.37
2022-09-27T19:32:51.606Z,3.50
2022-09-27T19:34:15.843Z,3.20
2022-09-27T19:34:48.045Z,3.10
2022-09-27T19:35:13.989Z,3.42
2022-09-27T19:35:40.901Z,3.40
2022-09-27T19:36:21.774Z,3.37
2022-09-27T19:37:41.836Z,3.42
2022-09-27T19:38:32.423Z,3.14
2022-09-27T19:40:15.369Z,3.42
2022-09-27T19:41:00.701Z,3.30
2022-09-27T19:43:34.441Z,3.67
2022-09-27T19:44:21.070Z,3.37
2022-09-27T19:45:21.156Z,3.20
2022-09-27T19:46:10.339Z,3.40
2022-09-27T19:46:35.090Z,3.17
2022-09-27T19:47:02.894Z,3.40
2022-09-27T19:47:20.806Z,3.08
2022-09-27T19:47:38.308Z,3.00
2022-09-27T19:48:13.487Z,3.10
2022-09-27T19:48:39.642Z,3.00
2022-09-27T19:48:56.753Z,3.10
2022-09-27T19:49:36.168Z,3.05
2022-09-27T19:50:07.046Z,3.15
2022-09-27T19:50:37.429Z,2.90
2022-09-27T19:51:18.703Z,3.00
2022-09-27T19:52:08.855Z,3.20
2022-09-27T19:52:35.828Z,3.20
2022-09-27T19:53:32.225Z,3.15
2022-09-27T19:53:54.924Z,3.00
2022-09-27T19:54:36.998Z,3.00
2022-09-27T19:54:58.668Z,2.80
2022-09-27T20:19:26.094Z,2.40
2022-09-27T20:20:02.402Z,2.20
2022-09-27T20:20:41.867Z,2.30
2022-09-27T20:21:06.642Z,2.60
2022-09-27T20:21:41.699Z,2.45
2022-09-27T20:22:18.655Z,2.22
2022-09-27T20:22:42.055Z,2.20
2022-09-27T20:23:00.354Z,2.30
2022-09-27T20:23:20.304Z,2.30
2022-09-27T20:24:09.310Z,2.20
2022-09-27T20:26:32.200Z,2.28
2022-09-27T20:26:56.656Z,2.10
2022-09-27T20:27:19.441Z,2.00
2022-09-27T20:27:46.938Z,2.05
2022-09-27T20:28:20.588Z,2.45
2022-09-27T20:28:55.786Z,2.20
2022-09-27T20:29:11.353Z,2.22
2022-09-27T20:29:34.485Z,2.10
2022-09-27T20:30:19.400Z,2.20
2022-09-27T20:31:07.113Z,1.90
2022-09-27T20:31:27.231Z,2.15
2022-09-27T20:32:27.414Z,2.20
2022-09-27T20:32:44.848Z,2.17
2022-09-27T20:33:51.776Z,2.20
2022-09-27T20:35:09.143Z,1.92
2022-09-27T20:35:41.869Z,1.87
2022-09-27T20:36:07.625Z,1.90
2022-09-27T20:36:42.284Z,1.83
2022-09-27T20:37:27.932Z,1.90
2022-09-27T20:38:34.260Z,1.73
2022-09-27T20:39:16.035Z,1.87
2022-09-27T20:39:41.613Z,2.00
2022-09-27T20:40:01.687Z,2.00
2022-09-27T20:40:23.041Z,2.00
2022-09-27T20:40:52.406Z,1.83
2022-09-27T20:41:09.612Z,1.80
2022-09-27T20:41:26.165Z,1.85
2022-09-27T20:42:11.020Z,1.80
2022-09-27T20:42:36.452Z,1.80
2022-09-27T22:21:04.227Z,0.77
2022-09-27T22:21:35.739Z,0.70
2022-09-27T22:22:26.966Z,0.70
2022-09-27T22:22:46.990Z,0.80
2022-09-27T22:23:01.643Z,0.80
2022-09-27T22:23:31.067Z,0.70
2022-09-27T22:24:07.242Z,0.70
2022-09-27T22:26:00.693Z,0.80
2022-09-27T22:26:20.792Z,0.65
2022-09-27T22:26:38.874Z,0.70
2022-09-27T22:27:13.161Z,0.60
2022-09-27T22:27:35.729Z,0.70
2022-09-27T22:27:58.535Z,0.70
2022-09-27T22:29:46.354Z,0.73
2022-09-27T22:30:02.734Z,0.75
2022-09-27T22:30:37.311Z,0.77
